createdAt,value
2018-03-18T10:33:10.471Z,1006.93
2018-03-18T10:34:10.411Z,1006.92
2018-03-18T10:35:10.387Z,1006.80
2018-03-18T10:36:10.361Z,1006.94
2018-03-18T10:37:10.334Z,1006.79
2018-03-18T10:38:10.309Z,1006.95
2018-03-18T10:39:10.286Z,1007.00
2018-03-18T10:40:10.254Z,1006.93
2018-03-18T10:41:10.233Z,1006.79
2018-03-18T10:42:10.208Z,1007.07
2018-03-18T10:43:10.176Z,1006.93
2018-03-18T10:44:10.152Z,1006.95
2018-03-18T10:45:10.141Z,1006.95
2018-03-18T10:46:10.100Z,1007.01
2018-03-18T10:47:10.123Z,1007.00
2018-03-18T10:48:10.052Z,1007.07
2018-03-18T10:49:10.035Z,1006.99
2018-03-18T10:50:10.002Z,1007.00
2018-03-18T10:51:09.980Z,1006.97
2018-03-18T10:52:09.953Z,1007.03
2018-03-18T10:53:09.926Z,1007.06
2018-03-18T10:54:09.902Z,1007.01
2018-03-18T10:55:09.877Z,1007.01
2018-03-18T10:56:09.848Z,1006.95
2018-03-18T10:57:09.827Z,1006.94
2018-03-18T10:58:09.798Z,1006.87
2018-03-18T10:59:09.773Z,1006.88
2018-03-18T11:00:09.750Z,1006.87
2018-03-18T11:01:09.725Z,1006.93
2018-03-18T11:02:09.692Z,1007.02
2018-03-18T11:03:09.674Z,1006.95
2018-03-18T11:04:09.652Z,1006.89
2018-03-18T11:05:09.622Z,1006.87
2018-03-18T11:06:09.596Z,1006.96
2018-03-18T11:07:09.574Z,1006.89
2018-03-18T11:08:09.552Z,1006.87
2018-03-18T11:09:09.523Z,1006.95
2018-03-18T11:10:09.497Z,1006.99
2018-03-18T11:11:09.474Z,1006.83
2018-03-18T11:12:09.447Z,1006.87
2018-03-18T11:13:09.422Z,1006.97
2018-03-18T11:14:09.396Z,1006.94
2018-03-18T11:15:09.403Z,1006.99
2018-03-18T11:16:09.375Z,1006.92
2018-03-18T11:17:09.332Z,1006.90
2018-03-18T11:18:09.298Z,1007.00
2018-03-18T11:19:09.270Z,1006.97
2018-03-18T11:20:09.330Z,1007.05
2018-03-18T11:21:09.225Z,1007.04
2018-03-18T11:22:09.196Z,1007.10
2018-03-18T11:23:09.178Z,1007.15
2018-03-18T11:24:09.151Z,1006.95
2018-03-18T11:25:09.119Z,1007.02
2018-03-18T11:26:09.101Z,1007.03
2018-03-18T11:27:09.116Z,1006.98
2018-03-18T11:28:09.069Z,1006.99
2018-03-18T11:29:09.039Z,1007.00
2018-03-18T11:30:09.048Z,1007.01
2018-03-18T11:31:08.986Z,1006.99
2018-03-18T11:32:08.960Z,1007.00
2018-03-18T11:33:08.937Z,1006.92
2018-03-18T11:34:08.913Z,1006.98
2018-03-18T11:35:08.885Z,1006.87
2018-03-18T11:36:08.875Z,1006.85
2018-03-18T11:37:08.851Z,1006.92
2018-03-18T11:38:08.825Z,1006.83
2018-03-18T11:39:08.798Z,1006.85
2018-03-18T11:40:08.776Z,1006.83
2018-03-18T11:41:08.757Z,1006.89
2018-03-18T11:42:08.726Z,1006.84
2018-03-18T11:43:08.703Z,1006.86
2018-03-18T11:44:08.681Z,1006.81
2018-03-18T11:45:08.658Z,1006.90
2018-03-18T11:46:08.632Z,1006.89
2018-03-18T11:47:08.614Z,1006.99
2018-03-18T11:48:08.589Z,1007.01
2018-03-18T11:49:08.564Z,1006.88
2018-03-18T11:50:08.538Z,1007.03
2018-03-18T11:51:08.518Z,1006.97
2018-03-18T11:52:08.488Z,1007.13
2018-03-18T11:53:08.472Z,1007.19
2018-03-18T11:54:08.444Z,1007.14
2018-03-18T11:55:08.417Z,1007.09
2018-03-18T11:56:08.398Z,1007.22
2018-03-18T11:57:08.375Z,1007.30
2018-03-18T11:58:08.352Z,1007.23
2018-03-18T11:59:08.329Z,1007.10
2018-03-18T12:00:08.310Z,1006.92
2018-03-18T12:01:08.347Z,1007.14
2018-03-18T12:02:08.260Z,1007.18
2018-03-18T12:03:08.246Z,1007.26
2018-03-18T12:04:08.243Z,1007.29
2018-03-18T12:05:08.203Z,1007.29
2018-03-18T12:06:08.183Z,1007.26
2018-03-18T12:07:08.165Z,1007.42
2018-03-18T12:08:08.139Z,1007.41
2018-03-18T12:09:08.119Z,1007.31
2018-03-18T12:10:08.104Z,1007.18
2018-03-18T12:11:08.084Z,1007.12
2018-03-18T12:12:08.060Z,1007.25
2018-03-18T12:13:08.044Z,1007.23
2018-03-18T12:14:08.023Z,1007.17
2018-03-18T12:15:08.008Z,1007.14
2018-03-18T12:16:07.987Z,1007.17
2018-03-18T12:17:07.976Z,1007.16
2018-03-18T12:18:07.951Z,1006.96
2018-03-18T12:19:07.946Z,1007.11
2018-03-18T12:20:07.917Z,1007.01
2018-03-18T12:21:07.898Z,1007.32
2018-03-18T12:22:07.882Z,1007.25
2018-03-18T12:23:07.865Z,1007.34
2018-03-18T12:24:07.851Z,1007.33
2018-03-18T12:25:07.831Z,1007.37
2018-03-18T12:26:07.811Z,1007.40
2018-03-18T12:27:07.794Z,1007.61
2018-03-18T12:28:07.798Z,1007.60
2018-03-18T12:29:07.760Z,1007.71
2018-03-18T12:30:07.741Z,1007.58
2018-03-18T12:31:07.731Z,1007.73
2018-03-18T12:32:07.711Z,1007.63
2018-03-18T12:33:07.691Z,1007.60
2018-03-18T12:34:07.674Z,1007.62
2018-03-18T12:35:07.659Z,1007.46
2018-03-18T12:36:07.637Z,1007.61
2018-03-18T12:37:07.619Z,1007.66
2018-03-18T12:38:07.601Z,1007.49
2018-03-18T12:39:07.649Z,1007.54
2018-03-18T12:40:07.569Z,1007.58
2018-03-18T12:41:07.553Z,1007.60
2018-03-18T12:42:07.535Z,1007.44
2018-03-18T12:43:07.517Z,1007.53
2018-03-18T12:44:07.503Z,1007.51
2018-03-18T12:45:07.485Z,1007.48
2018-03-18T12:46:07.466Z,1007.50
2018-03-18T12:47:07.454Z,1007.44
2018-03-18T12:48:07.516Z,1007.53
2018-03-18T12:49:07.421Z,1007.62
2018-03-18T12:50:07.403Z,1007.55
2018-03-18T12:51:07.425Z,1007.34
2018-03-18T12:52:07.362Z,1007.39
2018-03-18T12:53:07.347Z,1007.39
2018-03-18T12:54:07.335Z,1007.47
2018-03-18T12:55:07.314Z,1007.36
2018-03-18T12:56:07.301Z,1007.42
2018-03-18T12:57:07.276Z,1007.31
2018-03-18T12:58:07.261Z,1007.30
2018-03-18T12:59:07.240Z,1007.39
2018-03-18T13:00:07.225Z,1007.27
2018-03-18T13:01:07.208Z,1007.26
2018-03-18T13:02:07.190Z,1007.34
2018-03-18T13:03:07.182Z,1007.35
2018-03-18T13:04:07.160Z,1007.31
2018-03-18T13:05:07.141Z,1007.30
2018-03-18T13:06:07.122Z,1007.29
2018-03-18T13:07:07.105Z,1007.37
2018-03-18T13:08:07.085Z,1007.21
2018-03-18T13:09:07.068Z,1007.34
2018-03-18T13:10:07.062Z,1007.29
2018-03-18T13:11:07.034Z,1007.34
2018-03-18T13:12:07.024Z,1007.20
2018-03-18T13:13:06.998Z,1007.30
2018-03-18T13:14:06.986Z,1007.26
2018-03-18T13:15:06.966Z,1007.39
2018-03-18T13:16:06.948Z,1007.40
2018-03-18T13:17:06.928Z,1007.32
2018-03-18T13:18:06.914Z,1007.33
2018-03-18T13:19:06.895Z,1007.50
2018-03-18T13:20:06.876Z,1007.46
2018-03-18T13:21:06.856Z,1007.43
2018-03-18T13:22:06.838Z,1007.53
2018-03-18T13:23:06.869Z,1007.47
2018-03-18T13:24:06.802Z,1007.43
2018-03-18T13:25:06.855Z,1007.57
2018-03-18T13:26:06.770Z,1007.54
2018-03-18T13:27:06.747Z,1007.43
2018-03-18T13:28:06.735Z,1007.54
2018-03-18T13:29:06.717Z,1007.53
2018-03-18T13:30:06.743Z,1007.49
2018-03-18T13:31:06.682Z,1007.44
2018-03-18T13:32:06.659Z,1007.41
2018-03-18T13:33:06.644Z,1007.33
2018-03-18T13:34:06.674Z,1007.25
2018-03-18T13:35:06.612Z,1007.26
2018-03-18T13:36:06.593Z,1007.36
2018-03-18T13:37:06.573Z,1007.49
2018-03-18T13:38:06.557Z,1007.26
2018-03-18T13:39:06.541Z,1007.36
2018-03-18T13:40:06.529Z,1007.39
2018-03-18T13:41:06.505Z,1007.55
2018-03-18T13:42:06.490Z,1007.44
2018-03-18T13:43:06.476Z,1007.43
2018-03-18T13:44:06.459Z,1007.35
2018-03-18T13:45:06.439Z,1007.50
2018-03-18T13:46:06.426Z,1007.54
2018-03-18T13:47:06.405Z,1007.55
2018-03-18T13:48:06.390Z,1007.58
2018-03-18T13:49:06.365Z,1007.62
2018-03-18T13:50:06.349Z,1007.74
2018-03-18T13:51:06.329Z,1007.75
2018-03-18T13:52:06.312Z,1007.65
2018-03-18T13:53:06.294Z,1007.58
2018-03-18T13:54:06.281Z,1007.77
2018-03-18T13:55:06.265Z,1007.76
2018-03-18T13:56:06.245Z,1007.84
2018-03-18T13:57:06.236Z,1007.80
2018-03-18T13:58:06.212Z,1007.88
2018-03-18T13:59:06.195Z,1007.82
2018-03-18T14:00:06.191Z,1007.66
2018-03-18T14:01:06.155Z,1007.72
2018-03-18T14:02:06.146Z,1007.62
2018-03-18T14:03:06.125Z,1007.74
2018-03-18T14:04:06.111Z,1007.73
2018-03-18T14:05:06.095Z,1007.72
2018-03-18T14:06:06.075Z,1007.73
2018-03-18T14:07:06.052Z,1007.65
2018-03-18T14:08:06.042Z,1007.66
2018-03-18T14:09:06.023Z,1007.65
2018-03-18T14:10:06.006Z,1007.72
2018-03-18T14:11:05.990Z,1007.68
2018-03-18T14:12:05.972Z,1007.77
2018-03-18T14:13:05.956Z,1007.77
2018-03-18T14:14:05.949Z,1007.83
2018-03-18T14:15:06.016Z,1007.94
2018-03-18T14:16:05.906Z,1008.10
2018-03-18T14:17:05.888Z,1008.13
2018-03-18T14:18:05.874Z,1008.19
2018-03-18T14:19:05.857Z,1008.31
2018-03-18T14:20:05.860Z,1008.34
2018-03-18T14:21:05.828Z,1008.24
2018-03-18T14:22:05.811Z,1008.25
2018-03-18T14:23:05.790Z,1008.34
2018-03-18T14:24:05.778Z,1008.17
2018-03-18T14:25:05.759Z,1008.28
2018-03-18T14:26:05.742Z,1008.18
2018-03-18T14:27:05.721Z,1008.21
2018-03-18T14:28:05.711Z,1008.09
2018-03-18T14:29:05.688Z,1007.94
2018-03-18T14:30:05.675Z,1007.92
2018-03-18T14:31:05.667Z,1007.93
2018-03-18T14:32:05.652Z,1007.80
2018-03-18T14:33:05.628Z,1007.73
2018-03-18T14:34:05.614Z,1007.75
2018-03-18T14:35:05.598Z,1007.60
2018-03-18T14:36:05.590Z,1007.62
2018-03-18T14:37:05.564Z,1007.46
2018-03-18T14:38:05.549Z,1007.34
2018-03-18T14:39:05.530Z,1007.42
2018-03-18T14:40:05.513Z,1007.34
2018-03-18T14:41:05.505Z,1007.39
2018-03-18T14:42:05.487Z,1007.41
2018-03-18T14:43:05.476Z,1007.23
2018-03-18T14:44:05.454Z,1007.28
2018-03-18T14:45:05.493Z,1007.22
2018-03-18T14:46:05.425Z,1007.27
2018-03-18T14:47:05.407Z,1007.19
2018-03-18T14:48:05.387Z,1007.13
2018-03-18T14:49:05.368Z,1007.24
2018-03-18T14:50:05.359Z,1007.10
2018-03-18T14:51:05.341Z,1007.11
2018-03-18T14:52:05.325Z,1007.10
2018-03-18T14:53:05.310Z,1007.14
2018-03-18T14:54:05.298Z,1007.13
2018-03-18T14:55:05.281Z,1006.99
2018-03-18T14:56:05.262Z,1006.98
2018-03-18T14:57:05.292Z,1006.91
2018-03-18T14:58:05.230Z,1006.86
2018-03-18T14:59:05.212Z,1006.87
2018-03-18T15:00:05.247Z,1007.04
2018-03-18T15:01:05.175Z,1006.99
2018-03-18T15:02:05.161Z,1006.80
2018-03-18T15:03:05.138Z,1006.85
2018-03-18T15:04:05.126Z,1006.98
2018-03-18T15:05:05.116Z,1007.00
2018-03-18T15:06:05.095Z,1007.00
2018-03-18T15:07:05.080Z,1007.10
2018-03-18T15:08:05.069Z,1007.07
2018-03-18T15:09:05.050Z,1007.02
2018-03-18T15:10:05.023Z,1006.94
2018-03-18T15:11:05.005Z,1006.96
2018-03-18T15:12:04.989Z,1006.92
2018-03-18T15:13:04.976Z,1007.06
2018-03-18T15:14:04.952Z,1007.06
2018-03-18T15:15:04.936Z,1007.07
2018-03-18T15:16:04.918Z,1007.07
2018-03-18T15:17:04.914Z,1007.05
2018-03-18T15:18:04.884Z,1006.99
2018-03-18T15:19:04.877Z,1007.05
2018-03-18T15:20:04.849Z,1007.01
2018-03-18T15:21:04.831Z,1006.96
2018-03-18T15:22:04.812Z,1006.98
2018-03-18T15:23:04.797Z,1007.10
2018-03-18T15:24:04.777Z,1007.01
2018-03-18T15:25:04.764Z,1006.96
2018-03-18T15:26:04.744Z,1007.01
2018-03-18T15:27:04.721Z,1006.77
2018-03-18T15:28:04.711Z,1006.90
2018-03-18T15:29:04.690Z,1007.02
2018-03-18T15:30:04.672Z,1006.92
2018-03-18T15:31:04.651Z,1006.93
2018-03-18T15:32:04.644Z,1007.08
2018-03-18T15:33:04.616Z,1007.02
2018-03-18T15:34:04.598Z,1007.02
2018-03-18T15:35:04.579Z,1007.04
2018-03-18T15:36:04.562Z,1006.89
2018-03-18T15:37:04.546Z,1006.96
2018-03-18T15:38:04.526Z,1007.09
2018-03-18T15:39:04.503Z,1007.05
2018-03-18T15:40:04.490Z,1007.05
2018-03-18T15:41:04.492Z,1007.12
2018-03-18T15:42:04.454Z,1007.09
2018-03-18T15:43:04.441Z,1007.12
2018-03-18T15:44:04.418Z,1007.08
2018-03-18T15:45:04.398Z,1007.02
2018-03-18T15:46:04.383Z,1007.14
2018-03-18T15:47:04.358Z,1007.09
2018-03-18T15:48:04.344Z,1007.11
2018-03-18T15:49:04.330Z,1007.14
2018-03-18T15:50:04.310Z,1007.12
2018-03-18T15:51:04.291Z,1007.17
2018-03-18T15:52:04.269Z,1007.25
2018-03-18T15:53:04.260Z,1007.18
2018-03-18T15:54:04.246Z,1007.24
2018-03-18T15:55:04.216Z,1007.34
2018-03-18T15:56:04.197Z,1007.18
2018-03-18T15:57:04.182Z,1007.08
2018-03-18T15:58:04.165Z,1007.18
2018-03-18T15:59:04.144Z,1007.08
2018-03-18T16:00:04.131Z,1007.07
2018-03-18T16:01:04.106Z,1007.04
2018-03-18T16:02:04.090Z,1007.01
2018-03-18T16:03:04.070Z,1006.98
2018-03-18T16:04:04.047Z,1006.90
2018-03-18T16:05:04.032Z,1006.90
2018-03-18T16:06:04.017Z,1006.87
2018-03-18T16:07:03.994Z,1006.78
2018-03-18T16:08:03.973Z,1006.75
2018-03-18T16:09:03.956Z,1006.75
2018-03-18T16:10:03.937Z,1006.67
2018-03-18T16:11:03.918Z,1006.67
2018-03-18T16:12:03.896Z,1006.63
2018-03-18T16:13:03.879Z,1006.49
2018-03-18T16:14:03.868Z,1006.48
2018-03-18T16:15:03.837Z,1006.50
2018-03-18T16:16:03.819Z,1006.48
2018-03-18T16:17:03.802Z,1006.46
2018-03-18T16:18:03.893Z,1006.51
2018-03-18T16:19:03.760Z,1006.62
2018-03-18T16:20:03.743Z,1006.45
2018-03-18T16:21:03.715Z,1006.46
2018-03-18T16:22:03.697Z,1006.51
2018-03-18T16:23:03.668Z,1006.46
2018-03-18T16:24:03.650Z,1006.50
2018-03-18T16:25:03.629Z,1006.52
2018-03-18T16:26:03.606Z,1006.57
2018-03-18T16:27:03.597Z,1006.49
2018-03-18T16:28:03.558Z,1006.63
2018-03-18T16:29:03.543Z,1006.48
2018-03-18T16:30:03.514Z,1006.53
2018-03-18T16:31:03.498Z,1006.54
2018-03-18T16:32:03.460Z,1006.48
2018-03-18T16:33:03.457Z,1006.15
2018-03-18T16:34:03.421Z,1006.49
2018-03-18T16:35:03.394Z,1006.48
2018-03-18T16:36:03.364Z,1006.59
2018-03-18T16:37:03.351Z,1006.48
2018-03-18T16:38:03.320Z,1006.54
2018-03-18T16:39:03.290Z,1006.53
2018-03-18T16:40:03.260Z,1006.57
2018-03-18T16:41:03.238Z,1006.46
2018-03-18T16:42:03.219Z,1006.39
2018-03-18T16:43:03.193Z,1006.49
2018-03-18T16:44:03.166Z,1006.61
2018-03-18T16:45:03.140Z,1006.29
2018-03-18T16:46:03.412Z,1006.56
2018-03-18T16:47:03.081Z,1006.48
2018-03-18T16:48:03.053Z,1006.56
2018-03-18T16:49:03.052Z,1006.48
2018-03-18T16:50:03.003Z,1006.64
2018-03-18T16:51:02.973Z,1006.54
2018-03-18T16:52:02.950Z,1006.57
2018-03-18T16:53:02.924Z,1006.67
2018-03-18T16:54:02.893Z,1006.57
2018-03-18T16:55:02.876Z,1006.59
2018-03-18T16:56:02.841Z,1006.67
2018-03-18T16:57:02.810Z,1006.63
2018-03-18T16:58:02.787Z,1006.72
2018-03-18T16:59:02.760Z,1006.60
2018-03-18T17:00:02.729Z,1006.79
2018-03-18T17:01:02.708Z,1006.57
2018-03-18T17:02:02.687Z,1006.71
2018-03-18T17:03:02.648Z,1006.70
2018-03-18T17:04:02.622Z,1006.83
2018-03-18T17:05:02.594Z,1006.77
2018-03-18T17:06:02.565Z,1006.72
2018-03-18T17:07:02.539Z,1006.86
2018-03-18T17:08:02.511Z,1006.78
2018-03-18T17:09:02.483Z,1006.76
2018-03-18T17:10:02.456Z,1006.80
2018-03-18T17:11:02.428Z,1006.84
2018-03-18T17:12:02.399Z,1006.82
2018-03-18T17:13:02.370Z,1006.81
2018-03-18T17:14:02.342Z,1006.79
2018-03-18T17:15:02.315Z,1006.93
2018-03-18T17:16:02.288Z,1006.95
2018-03-18T17:17:02.258Z,1006.90
2018-03-18T17:18:02.233Z,1006.95
2018-03-18T17:19:02.202Z,1006.94
2018-03-18T17:20:02.174Z,1006.98
2018-03-18T17:21:02.145Z,1006.91
2018-03-18T17:22:02.119Z,1006.95
2018-03-18T17:23:02.089Z,1007.04
2018-03-18T17:24:02.060Z,1006.96
2018-03-18T17:25:02.037Z,1007.05
2018-03-18T17:26:02.007Z,1007.00
2018-03-18T17:27:01.974Z,1007.05
2018-03-18T17:28:01.944Z,1007.07
2018-03-18T17:29:01.913Z,1007.02
2018-03-18T17:30:01.889Z,1007.17
2018-03-18T17:31:01.865Z,1007.07
2018-03-18T17:32:01.828Z,1007.17
2018-03-18T17:33:01.804Z,1007.14
2018-03-18T17:34:01.775Z,1007.23
2018-03-18T17:35:01.746Z,1007.16
2018-03-18T17:36:01.718Z,1007.17
2018-03-18T17:37:01.749Z,1007.23
2018-03-18T17:38:01.659Z,1007.28
2018-03-18T17:39:01.632Z,1007.23
2018-03-18T17:40:01.600Z,1007.19
2018-03-18T17:41:01.579Z,1007.22
2018-03-18T17:42:01.546Z,1007.27
2018-03-18T17:43:01.513Z,1007.35
2018-03-18T17:44:01.490Z,1007.26
2018-03-18T17:45:01.462Z,1007.35
2018-03-18T17:46:01.430Z,1007.26
2018-03-18T17:47:01.401Z,1007.39
2018-03-18T17:48:01.372Z,1007.42
2018-03-18T17:49:01.344Z,1007.44
2018-03-18T17:50:01.310Z,1007.43
2018-03-18T17:51:01.285Z,1007.44
2018-03-18T17:52:01.256Z,1007.47
2018-03-18T17:53:01.222Z,1007.50
2018-03-18T17:54:01.203Z,1007.50
2018-03-18T17:55:01.166Z,1007.48
2018-03-18T17:56:01.137Z,1007.45
2018-03-18T17:57:01.109Z,1007.45
2018-03-18T17:58:01.081Z,1007.50
2018-03-18T17:59:01.054Z,1007.51
2018-03-18T18:00:01.031Z,1007.60
2018-03-18T18:01:00.994Z,1007.54
2018-03-18T18:02:00.973Z,1007.55
2018-03-18T18:03:00.930Z,1007.56
2018-03-18T18:04:00.909Z,1007.55
2018-03-18T18:05:00.876Z,1007.49
2018-03-18T18:06:00.849Z,1007.45
2018-03-18T18:07:00.820Z,1007.61
2018-03-18T18:08:00.794Z,1007.64
2018-03-18T18:09:00.765Z,1007.74
2018-03-18T18:10:00.736Z,1007.67
2018-03-18T18:11:00.702Z,1007.62
2018-03-18T18:12:00.666Z,1007.67
2018-03-18T18:13:00.643Z,1007.64
2018-03-18T18:14:00.619Z,1007.68
2018-03-18T18:15:00.589Z,1007.65
2018-03-18T18:16:00.565Z,1007.73
2018-03-18T18:17:00.576Z,1007.71
2018-03-18T18:18:00.502Z,1007.74
2018-03-18T18:19:00.471Z,1007.71
2018-03-18T18:20:00.442Z,1007.66
2018-03-18T18:21:00.443Z,1007.71
2018-03-18T18:22:00.386Z,1007.75
2018-03-18T18:23:00.353Z,1007.74
2018-03-18T18:24:01.832Z,1007.76
2018-03-18T18:25:00.307Z,1007.77
2018-03-18T18:26:00.268Z,1007.73
2018-03-18T18:27:00.242Z,1007.79
2018-03-18T18:28:00.205Z,1007.73
2018-03-18T18:29:00.188Z,1007.81
2018-03-18T18:30:00.151Z,1007.80
2018-03-18T18:31:00.121Z,1007.78
2018-03-18T18:32:00.092Z,1007.78
2018-03-18T18:33:00.060Z,1007.84
2018-03-18T18:34:00.035Z,1007.80
2018-03-18T18:34:59.997Z,1007.74
2018-03-18T18:35:59.981Z,1007.81
2018-03-18T18:36:59.944Z,1007.89
2018-03-18T18:37:59.917Z,1007.83
2018-03-18T18:38:59.883Z,1007.87
2018-03-18T18:39:59.859Z,1007.87
2018-03-18T18:40:59.840Z,1007.89
2018-03-18T18:41:59.800Z,1007.89
2018-03-18T18:42:59.770Z,1007.92
2018-03-18T18:43:59.741Z,1007.96
2018-03-18T18:44:59.716Z,1007.89
2018-03-18T18:45:59.686Z,1007.94
2018-03-18T18:46:59.653Z,1007.93
2018-03-18T18:47:59.626Z,1007.96
2018-03-18T18:48:59.607Z,1007.94
2018-03-18T18:49:59.565Z,1007.99
2018-03-18T18:50:59.535Z,1007.99
2018-03-18T18:51:59.509Z,1008.02
2018-03-18T18:52:59.476Z,1008.03
2018-03-18T18:53:59.448Z,1008.04
2018-03-18T18:54:59.419Z,1007.86
2018-03-18T18:55:59.389Z,1008.09
2018-03-18T18:56:59.361Z,1008.10
2018-03-18T18:57:59.332Z,1008.04
2018-03-18T18:58:59.299Z,1008.07
2018-03-18T18:59:59.273Z,1008.13
2018-03-18T19:00:59.244Z,1008.08
2018-03-18T19:01:59.221Z,1008.19
2018-03-18T19:02:59.221Z,1008.10
2018-03-18T19:03:59.154Z,1008.18
2018-03-18T19:04:59.127Z,1008.20
2018-03-18T19:05:59.095Z,1008.15
2018-03-18T19:06:59.064Z,1008.13
2018-03-18T19:07:59.041Z,1008.09
2018-03-18T19:08:59.009Z,1008.14
2018-03-18T19:09:58.980Z,1008.13
2018-03-18T19:10:58.952Z,1008.14
2018-03-18T19:11:58.917Z,1008.14
2018-03-18T19:12:58.893Z,1008.18
2018-03-18T19:13:58.862Z,1008.18
2018-03-18T19:14:58.835Z,1008.22
2018-03-18T19:15:58.804Z,1008.21
2018-03-18T19:16:58.781Z,1008.19
2018-03-18T19:17:58.751Z,1008.27
2018-03-18T19:18:58.716Z,1008.25
2018-03-18T19:19:58.688Z,1008.21
2018-03-18T19:20:58.658Z,1008.28
2018-03-18T19:21:58.654Z,1008.16
2018-03-18T19:22:58.598Z,1008.16
2018-03-18T19:23:58.570Z,1008.15
2018-03-18T19:24:58.548Z,1008.16
2018-03-18T19:25:58.511Z,1008.11
2018-03-18T19:26:58.480Z,1008.16
2018-03-18T19:27:58.454Z,1008.21
2018-03-18T19:28:58.424Z,1008.14
2018-03-18T19:29:58.393Z,1008.23
2018-03-18T19:30:58.369Z,1008.19
2018-03-18T19:31:58.335Z,1008.27
2018-03-18T19:32:58.307Z,1008.26
2018-03-18T19:33:58.276Z,1008.19
2018-03-18T19:34:58.247Z,1008.18
2018-03-18T19:35:58.216Z,1008.22
2018-03-18T19:36:58.189Z,1008.21
2018-03-18T19:37:58.191Z,1008.21
2018-03-18T19:38:58.159Z,1008.14
2018-03-18T19:39:58.137Z,1008.17
2018-03-18T19:40:58.096Z,1008.06
2018-03-18T19:41:58.045Z,1008.16
2018-03-18T19:42:58.016Z,1008.18
2018-03-18T19:43:57.978Z,1008.13
2018-03-18T19:44:57.952Z,1008.08
2018-03-18T19:45:57.926Z,1008.07
2018-03-18T19:46:57.898Z,1008.07
2018-03-18T19:47:59.656Z,1008.13
2018-03-18T19:48:57.852Z,1008.15
2018-03-18T19:49:57.810Z,1008.13
2018-03-18T19:50:57.780Z,1008.14
2018-03-18T19:51:57.746Z,1008.19
2018-03-18T19:52:57.719Z,1008.16
2018-03-18T19:53:57.697Z,1008.24
2018-03-18T19:54:57.655Z,1008.20
2018-03-18T19:55:58.170Z,1008.23
2018-03-18T19:56:57.600Z,1008.24
2018-03-18T19:57:57.565Z,1008.27
2018-03-18T19:58:57.555Z,1008.24
2018-03-18T19:59:57.511Z,1008.21
2018-03-18T20:00:57.482Z,1008.14
2018-03-18T20:01:57.452Z,1008.27
2018-03-18T20:02:57.428Z,1008.22
2018-03-18T20:03:57.393Z,1008.21
2018-03-18T20:04:57.365Z,1008.21
2018-03-18T20:05:57.338Z,1008.21
2018-03-18T20:06:57.310Z,1008.26
2018-03-18T20:07:57.319Z,1008.29
2018-03-18T20:08:57.248Z,1008.21
2018-03-18T20:09:57.222Z,1008.29
2018-03-18T20:10:57.196Z,1008.20
2018-03-18T20:11:57.154Z,1008.27
2018-03-18T20:12:57.130Z,1008.27
2018-03-18T20:13:57.100Z,1008.23
2018-03-18T20:14:57.068Z,1008.31
2018-03-18T20:15:57.038Z,1008.27
2018-03-18T20:16:57.011Z,1008.29
2018-03-18T20:17:56.981Z,1008.34
2018-03-18T20:18:56.952Z,1008.26
2018-03-18T20:19:56.926Z,1008.26
2018-03-18T20:20:56.894Z,1008.27
2018-03-18T20:21:56.866Z,1008.32
2018-03-18T20:22:56.841Z,1008.29
2018-03-18T20:23:56.804Z,1008.33
2018-03-18T20:24:56.772Z,1008.28
2018-03-18T20:25:56.743Z,1008.30
2018-03-18T20:26:56.719Z,1008.30
2018-03-18T20:27:56.687Z,1008.31
2018-03-18T20:28:56.652Z,1008.35
2018-03-18T20:29:56.631Z,1008.24
2018-03-18T20:30:56.597Z,1008.32
2018-03-18T20:31:56.564Z,1008.26
2018-03-18T20:32:56.538Z,1008.24
2018-03-18T20:33:56.559Z,1008.25
2018-03-18T20:34:56.478Z,1008.24
2018-03-18T20:35:56.456Z,1008.24
2018-03-18T20:36:56.417Z,1008.25
2018-03-18T20:37:56.393Z,1008.22
2018-03-18T20:38:56.361Z,1008.23
2018-03-18T20:39:56.330Z,1008.20
2018-03-18T20:40:56.298Z,1008.31
2018-03-18T20:41:56.284Z,1008.33
2018-03-18T20:42:56.242Z,1008.35
2018-03-18T20:43:56.216Z,1008.31
2018-03-18T20:44:56.184Z,1008.33
2018-03-18T20:45:56.152Z,1008.36
2018-03-18T20:46:56.125Z,1008.38
2018-03-18T20:47:56.099Z,1008.35
2018-03-18T20:48:56.067Z,1008.34
2018-03-18T20:49:56.035Z,1008.33
2018-03-18T20:50:56.007Z,1008.28
2018-03-18T20:51:55.976Z,1008.31
2018-03-18T20:52:55.954Z,1008.32
2018-03-18T20:53:55.917Z,1008.29
2018-03-18T20:54:55.889Z,1008.36
2018-03-18T20:55:55.858Z,1008.37
2018-03-18T20:56:55.829Z,1008.31
2018-03-18T20:57:55.798Z,1008.30
2018-03-18T20:58:55.771Z,1008.24
2018-03-18T20:59:55.743Z,1008.39
2018-03-18T21:00:55.720Z,1008.40
2018-03-18T21:01:55.684Z,1008.28
2018-03-18T21:02:55.653Z,1008.36
2018-03-18T21:03:55.619Z,1008.38
2018-03-18T21:04:55.589Z,1008.35
2018-03-18T21:05:55.564Z,1008.34
2018-03-18T21:06:55.530Z,1008.39
2018-03-18T21:07:55.502Z,1008.34
2018-03-18T21:08:55.474Z,1008.32
2018-03-18T21:09:55.443Z,1008.36
2018-03-18T21:10:55.416Z,1008.32
2018-03-18T21:11:55.382Z,1008.29
2018-03-18T21:12:55.356Z,1008.33
2018-03-18T21:13:55.327Z,1008.37
2018-03-18T21:14:55.341Z,1008.35
2018-03-18T21:15:55.261Z,1008.34
2018-03-18T21:16:55.236Z,1008.34
2018-03-18T21:17:55.203Z,1008.36
2018-03-18T21:18:55.177Z,1008.25
2018-03-18T21:19:55.147Z,1008.32
2018-03-18T21:20:55.116Z,1008.27
2018-03-18T21:21:55.095Z,1008.31
2018-03-18T21:22:55.063Z,1008.31
2018-03-18T21:23:55.029Z,1008.26
2018-03-18T21:24:54.994Z,1008.35
2018-03-18T21:25:55.002Z,1008.27
2018-03-18T21:26:54.939Z,1008.33
2018-03-18T21:27:54.922Z,1008.31
2018-03-18T21:28:54.882Z,1008.31
2018-03-18T21:29:54.854Z,1008.22
2018-03-18T21:30:54.818Z,1008.33
2018-03-18T21:31:54.792Z,1008.33
2018-03-18T21:32:54.760Z,1008.28
2018-03-18T21:33:54.731Z,1008.37
2018-03-18T21:34:54.706Z,1008.28
2018-03-18T21:35:54.669Z,1008.28
2018-03-18T21:36:54.642Z,1008.31
2018-03-18T21:37:54.610Z,1008.29
2018-03-18T21:38:54.581Z,1008.27
2018-03-18T21:39:54.558Z,1008.28
2018-03-18T21:40:54.519Z,1008.33
2018-03-18T21:41:54.492Z,1008.27
2018-03-18T21:42:54.464Z,1008.32
2018-03-18T21:43:54.433Z,1008.29
2018-03-18T21:44:54.402Z,1008.31
2018-03-18T21:45:54.373Z,1008.30
2018-03-18T21:46:54.347Z,1008.29
2018-03-18T21:47:54.311Z,1008.34
2018-03-18T21:48:54.283Z,1008.33
2018-03-18T21:49:54.258Z,1008.20
2018-03-18T21:50:54.223Z,1008.27
2018-03-18T21:51:54.197Z,1008.26
2018-03-18T21:52:54.159Z,1008.29
2018-03-18T21:53:54.133Z,1008.30
2018-03-18T21:54:54.106Z,1008.28
2018-03-18T21:55:54.069Z,1008.28
2018-03-18T21:56:54.044Z,1008.26
2018-03-18T21:57:54.013Z,1008.23
2018-03-18T21:58:53.987Z,1008.24
2018-03-18T21:59:53.947Z,1008.29
2018-03-18T22:00:53.924Z,1008.24
2018-03-18T22:01:53.894Z,1008.27
2018-03-18T22:02:53.862Z,1008.25
2018-03-18T22:03:53.834Z,1008.31
2018-03-18T22:04:53.808Z,1008.29
2018-03-18T22:05:53.776Z,1008.29
2018-03-18T22:06:53.744Z,1008.30
2018-03-18T22:07:53.723Z,1008.28
2018-03-18T22:08:53.686Z,1008.27
2018-03-18T22:09:53.660Z,1008.27
2018-03-18T22:10:53.626Z,1008.26
2018-03-18T22:11:53.595Z,1008.26
2018-03-18T22:12:53.566Z,1008.21
2018-03-18T22:13:53.546Z,1008.23
2018-03-18T22:14:53.506Z,1008.24
2018-03-18T22:15:53.475Z,1008.23
2018-03-18T22:16:53.446Z,1008.25
2018-03-18T22:17:53.415Z,1008.21
2018-03-18T22:18:53.386Z,1008.22
2018-03-18T22:19:53.356Z,1008.20
2018-03-18T22:20:53.324Z,1008.22
2018-03-18T22:21:53.300Z,1008.18
2018-03-18T22:22:53.266Z,1008.17
2018-03-18T22:23:53.242Z,1008.18
2018-03-18T22:24:53.199Z,1008.19
2018-03-18T22:25:53.175Z,1008.16
2018-03-18T22:26:53.154Z,1008.17
2018-03-18T22:27:53.113Z,1008.15
2018-03-18T22:28:53.095Z,1008.18
2018-03-18T22:29:53.054Z,1008.21
2018-03-18T22:30:53.024Z,1008.21
2018-03-18T22:31:52.994Z,1008.22
2018-03-18T22:32:52.964Z,1008.21
2018-03-18T22:33:52.935Z,1008.29
2018-03-18T22:34:52.906Z,1008.24
2018-03-18T22:35:52.876Z,1008.22
2018-03-18T22:36:52.850Z,1008.25
2018-03-18T22:37:52.815Z,1008.27